sensor_id;sensor_type;location;lat;lon;timestamp;pressure;altitude;pressure_sealevel;temperature;humidity
74427;BME280;62859;53.906;27.430;2024-02-15T00:04:26;1016.8;;;3.9;60.1
74427;BME280;62859;53.906;27.430;2024-02-15T00:09:12;1016.8;;;3.8;60.2
74427;BME280;62859;53.906;27.430;2024-02-15T00:14:26;1016.9;;;3.8;60
74427;BME280;62859;53.906;27.430;2024-02-15T00:19:38;1016.9;;;3.8;60
74427;BME280;62859;53.906;27.430;2024-02-15T00:24:20;1017;;;3.8;59.9
74427;BME280;62859;53.906;27.430;2024-02-15T00:29:54;1017;;;3.9;59.9
74427;BME280;62859;53.906;27.430;2024-02-15T00:34:10;1017;;;3.9;59.4
74427;BME280;62859;53.906;27.430;2024-02-15T00:39:54;1017;;;3.9;59.9
74427;BME280;62859;53.906;27.430;2024-02-15T00:44:20;1016.9;;;3.9;60.2
74427;BME280;62859;53.906;27.430;2024-02-15T00:49:54;1017;;;3.8;59.9
74427;BME280;62859;53.906;27.430;2024-02-15T00:54:34;1017;;;3.8;59.8
74427;BME280;62859;53.906;27.430;2024-02-15T00:59:10;1017;;;3.7;59.8
74427;BME280;62859;53.906;27.430;2024-02-15T01:04:10;1017;;;3.7;60.1
74427;BME280;62859;53.906;27.430;2024-02-15T01:09:21;1017;;;3.6;60
74427;BME280;62859;53.906;27.430;2024-02-15T01:14:44;1017.1;;;3.6;60.1
74427;BME280;62859;53.906;27.430;2024-02-15T01:19:36;1017.1;;;3.6;60.2
74427;BME280;62859;53.906;27.430;2024-02-15T01:24:54;1017.1;;;3.7;60.5
74427;BME280;62859;53.906;27.430;2024-02-15T01:29:28;1017.1;;;3.8;60.8
74427;BME280;62859;53.906;27.430;2024-02-15T01:34:20;1017.1;;;3.8;60.2
74427;BME280;62859;53.906;27.430;2024-02-15T01:39:54;1017.1;;;3.7;60.3
74427;BME280;62859;53.906;27.430;2024-02-15T01:44:34;1017.2;;;3.7;60.3
74427;BME280;62859;53.906;27.430;2024-02-15T01:49:18;1017.2;;;3.7;60
74427;BME280;62859;53.906;27.430;2024-02-15T01:54:46;1017.2;;;3.6;60.2
74427;BME280;62859;53.906;27.430;2024-02-15T01:59:28;1017.2;;;3.7;60.4
74427;BME280;62859;53.906;27.430;2024-02-15T02:04:34;1017.2;;;3.7;60.3
74427;BME280;62859;53.906;27.430;2024-02-15T02:09:11;1017.2;;;3.8;60
74427;BME280;62859;53.906;27.430;2024-02-15T02:14:52;1017.2;;;3.8;60.6
74427;BME280;62859;53.906;27.430;2024-02-15T02:19:52;1017.1;;;3.7;60.8
74427;BME280;62859;53.906;27.430;2024-02-15T02:24:21;1017.1;;;3.7;60.2
74427;BME280;62859;53.906;27.430;2024-02-15T02:29:10;1017.1;;;3.7;60.2
74427;BME280;62859;53.906;27.430;2024-02-15T02:34:18;1017.1;;;3.6;60.1
74427;BME280;62859;53.906;27.430;2024-02-15T02:39:16;1017.2;;;3.7;59.9
74427;BME280;62859;53.906;27.430;2024-02-15T02:44:36;1017.2;;;3.7;59.7
74427;BME280;62859;53.906;27.430;2024-02-15T02:49:52;1017.1;;;3.7;59.5
74427;BME280;62859;53.906;27.430;2024-02-15T02:54:28;1017.2;;;3.5;59.2
74427;BME280;62859;53.906;27.430;2024-02-15T02:59:46;1017.2;;;3.6;59.2
74427;BME280;62859;53.906;27.430;2024-02-15T03:04:36;1017.3;;;3.6;59.2
74427;BME280;62859;53.906;27.430;2024-02-15T03:09:52;1017.3;;;3.6;59.1
74427;BME280;62859;53.906;27.430;2024-02-15T03:14:30;1017.3;;;3.4;59.2
74427;BME280;62859;53.906;27.430;2024-02-15T03:19:12;1017.3;;;3.4;59.5
74427;BME280;62859;53.906;27.430;2024-02-15T03:24:24;1017.3;;;3.3;59.2
74427;BME280;62859;53.906;27.430;2024-02-15T03:29:44;1017.4;;;3.3;58.9
74427;BME280;62859;53.906;27.430;2024-02-15T03:34:26;1017.5;;;3.4;58.4
74427;BME280;62859;53.906;27.430;2024-02-15T03:39:38;1017.5;;;3.3;58.7
74427;BME280;62859;53.906;27.430;2024-02-15T03:44:11;1017.5;;;3.4;58.9
74427;BME280;62859;53.906;27.430;2024-02-15T03:49:44;1017.6;;;3.5;58.9
74427;BME280;62859;53.906;27.430;2024-02-15T03:54:52;1017.6;;;3.6;58.5
74427;BME280;62859;53.906;27.430;2024-02-15T03:59:17;1017.6;;;3.6;58
74427;BME280;62859;53.906;27.430;2024-02-15T04:04:10;1017.7;;;3.6;58
74427;BME280;62859;53.906;27.430;2024-02-15T04:09:10;1017.7;;;3.6;58.2
74427;BME280;62859;53.906;27.430;2024-02-15T04:14:10;1017.6;;;3.6;57.8
74427;BME280;62859;53.906;27.430;2024-02-15T04:19:28;1017.7;;;3.6;57.9
74427;BME280;62859;53.906;27.430;2024-02-15T04:24:18;1017.8;;;3.6;58.1
74427;BME280;62859;53.906;27.430;2024-02-15T04:29:36;1017.8;;;3.6;58
74427;BME280;62859;53.906;27.430;2024-02-15T04:34:46;1017.8;;;3.5;58
74427;BME280;62859;53.906;27.430;2024-02-15T04:39:36;1017.8;;;3.6;58.2
74427;BME280;62859;53.906;27.430;2024-02-15T04:44:54;1017.8;;;3.6;58.2
74427;BME280;62859;53.906;27.430;2024-02-15T04:49:10;1017.8;;;3.6;57.9
74427;BME280;62859;53.906;27.430;2024-02-15T04:54:46;1017.8;;;3.7;58
74427;BME280;62859;53.906;27.430;2024-02-15T04:59:18;1017.8;;;3.7;57.6
74427;BME280;62859;53.906;27.430;2024-02-15T05:04:30;1017.7;;;3.7;57.6
74427;BME280;62859;53.906;27.430;2024-02-15T05:09:20;1017.7;;;3.6;57.7
74427;BME280;62859;53.906;27.430;2024-02-15T05:14:54;1017.7;;;3.6;58.2
74427;BME280;62859;53.906;27.430;2024-02-15T05:19:44;1017.7;;;3.6;58
74427;BME280;62859;53.906;27.430;2024-02-15T05:24:44;1017.8;;;3.7;58.2
74427;BME280;62859;53.906;27.430;2024-02-15T05:29:54;1017.8;;;3.6;57.7
74427;BME280;62859;53.906;27.430;2024-02-15T05:34:18;1017.8;;;3.6;57.6
74427;BME280;62859;53.906;27.430;2024-02-15T05:39:24;1017.9;;;3.6;57.5
74427;BME280;62859;53.906;27.430;2024-02-15T05:44:10;1018;;;3.6;57.7
74427;BME280;62859;53.906;27.430;2024-02-15T05:49:10;1018;;;3.7;57.8
74427;BME280;62859;53.906;27.430;2024-02-15T05:54:46;1018;;;3.7;57.6
74427;BME280;62859;53.906;27.430;2024-02-15T05:59:16;1018;;;3.8;57.6
74427;BME280;62859;53.906;27.430;2024-02-15T06:04:34;1018;;;3.8;57.3
74427;BME280;62859;53.906;27.430;2024-02-15T06:09:54;1018.1;;;3.9;56.9
74427;BME280;62859;53.906;27.430;2024-02-15T06:14:45;1018.1;;;3.9;56.9
74427;BME280;62859;53.906;27.430;2024-02-15T06:19:52;1018.1;;;3.9;56.7
74427;BME280;62859;53.906;27.430;2024-02-15T06:24:54;1018.2;;;3.9;56.2
74427;BME280;62859;53.906;27.430;2024-02-15T06:29:20;1018.3;;;3.9;56.4
74427;BME280;62859;53.906;27.430;2024-02-15T06:34:34;1018.2;;;3.9;56.4
74427;BME280;62859;53.906;27.430;2024-02-15T06:39:54;1018.3;;;4;56.7
74427;BME280;62859;53.906;27.430;2024-02-15T06:44:34;1018.3;;;4.1;56.2
74427;BME280;62859;53.906;27.430;2024-02-15T06:49:10;1018.3;;;4.2;55.8
74427;BME280;62859;53.906;27.430;2024-02-15T06:54:54;1018.4;;;4.1;55.6
74427;BME280;62859;53.906;27.430;2024-02-15T06:59:12;1018.3;;;4.1;55.8
74427;BME280;62859;53.906;27.430;2024-02-15T07:04:54;1018.4;;;4.3;55.7
74427;BME280;62859;53.906;27.430;2024-02-15T07:09:24;1018.3;;;4.3;56.7
74427;BME280;62859;53.906;27.430;2024-02-15T07:14:55;1018.4;;;5.1;56.5
74427;BME280;62859;53.906;27.430;2024-02-15T07:19:10;1018.4;;;6;51.7
74427;BME280;62859;53.906;27.430;2024-02-15T07:24:10;1018.4;;;6;50.3
74427;BME280;62859;53.906;27.430;2024-02-15T07:29:26;1018.4;;;5.7;51.2
74427;BME280;62859;53.906;27.430;2024-02-15T07:44:44;1018.6;;;5.3;54.9
74427;BME280;62859;53.906;27.430;2024-02-15T07:49:30;1018.5;;;5.2;52.1
74427;BME280;62859;53.906;27.430;2024-02-15T07:59:54;1018.7;;;4.8;53
74427;BME280;62859;53.906;27.430;2024-02-15T08:09:34;1018.7;;;4.8;54.2
74427;BME280;62859;53.906;27.430;2024-02-15T08:14:46;1018.7;;;4.7;53.2
74427;BME280;62859;53.906;27.430;2024-02-15T08:19:34;1018.7;;;4.7;53.2
74427;BME280;62859;53.906;27.430;2024-02-15T08:24:26;1018.8;;;4.5;53.6
74427;BME280;62859;53.906;27.430;2024-02-15T08:29:12;1018.8;;;4.6;53.8
74427;BME280;62859;53.906;27.430;2024-02-15T08:34:10;1018.8;;;4.6;53.5
74427;BME280;62859;53.906;27.430;2024-02-15T08:39:34;1018.8;;;4.7;54.4
74427;BME280;62859;53.906;27.430;2024-02-15T08:44:24;1018.8;;;4.6;53.6
74427;BME280;62859;53.906;27.430;2024-02-15T08:59:18;1018.9;;;4.6;53.6
74427;BME280;62859;53.906;27.430;2024-02-15T09:09:18;1019;;;4.6;53.9
74427;BME280;62859;53.906;27.430;2024-02-15T09:19:54;1019.1;;;4.7;53.8
74427;BME280;62859;53.906;27.430;2024-02-15T09:24:36;1019.2;;;4.6;53.4
74427;BME280;62859;53.906;27.430;2024-02-15T09:34:54;1019.2;;;4.7;53.4
74427;BME280;62859;53.906;27.430;2024-02-15T09:39:10;1019.2;;;4.7;53.4
74427;BME280;62859;53.906;27.430;2024-02-15T09:44:34;1019.2;;;4.7;53.4
74427;BME280;62859;53.906;27.430;2024-02-15T09:49:46;1019.2;;;4.7;53.4
74427;BME280;62859;53.906;27.430;2024-02-15T09:59:10;1019.2;;;4.8;52.2
74427;BME280;62859;53.906;27.430;2024-02-15T10:04:30;1019.2;;;4.8;52.6
74427;BME280;62859;53.906;27.430;2024-02-15T10:09:24;1019.1;;;4.8;52.1
74427;BME280;62859;53.906;27.430;2024-02-15T10:24:57;1019.1;;;4.8;52.1
74427;BME280;62859;53.906;27.430;2024-02-15T10:29:35;1019.1;;;4.9;52.7
74427;BME280;62859;53.906;27.430;2024-02-15T10:34:13;1019.1;;;4.9;52.7
74427;BME280;62859;53.906;27.430;2024-02-15T10:39:19;1019.1;;;4.9;52.7
74427;BME280;62859;53.906;27.430;2024-02-15T10:49:19;1019;;;4.8;53.1
74427;BME280;62859;53.906;27.430;2024-02-15T10:54:33;1019;;;4.7;53.3
74427;BME280;62859;53.906;27.430;2024-02-15T11:14:26;1019;;;4.7;53.8
74427;BME280;62859;53.906;27.430;2024-02-15T11:19:53;1018.8;;;4.9;52.7
74427;BME280;62859;53.906;27.430;2024-02-15T11:24:24;1018.7;;;4.9;52.8
74427;BME280;62859;53.906;27.430;2024-02-15T11:29:48;1018.8;;;5;52.6
74427;BME280;62859;53.906;27.430;2024-02-15T11:34:41;1018.8;;;4.9;52.6
74427;BME280;62859;53.906;27.430;2024-02-15T11:39:47;1018.7;;;4.9;52.8
74427;BME280;62859;53.906;27.430;2024-02-15T11:54:11;1018.6;;;5;52.7
74427;BME280;62859;53.906;27.430;2024-02-15T11:59:45;1018.6;;;5.2;52.8
74427;BME280;62859;53.906;27.430;2024-02-15T12:04:55;1018.7;;;5.2;52.2
74427;BME280;62859;53.906;27.430;2024-02-15T12:09:17;1018.7;;;5.1;52.3
74427;BME280;62859;53.906;27.430;2024-02-15T12:14:12;1018.7;;;5.1;52.7
74427;BME280;62859;53.906;27.430;2024-02-15T12:19:29;1018.7;;;5.1;52.7
74427;BME280;62859;53.906;27.430;2024-02-15T12:24:19;1018.8;;;5.1;52.5
74427;BME280;62859;53.906;27.430;2024-02-15T12:29:11;1018.8;;;5.1;52.5
74427;BME280;62859;53.906;27.430;2024-02-15T12:34:19;1018.8;;;5.1;52.5
74427;BME280;62859;53.906;27.430;2024-02-15T12:39:23;1018.9;;;5;53.4
74427;BME280;62859;53.906;27.430;2024-02-15T12:44:55;1018.8;;;4.9;52.8
74427;BME280;62859;53.906;27.430;2024-02-15T12:49:27;1018.9;;;4.9;53.6
74427;BME280;62859;53.906;27.430;2024-02-15T12:55:05;1018.9;;;4.9;53.3
74427;BME280;62859;53.906;27.430;2024-02-15T12:59:16;1018.9;;;4.9;53.5
74427;BME280;62859;53.906;27.430;2024-02-15T13:04:20;1018.9;;;4.9;53.5
74427;BME280;62859;53.906;27.430;2024-02-15T13:09:55;1018.8;;;4.8;53.2
74427;BME280;62859;53.906;27.430;2024-02-15T13:14:55;1018.8;;;4.8;53.2
74427;BME280;62859;53.906;27.430;2024-02-15T13:19:35;1018.7;;;4.8;53.7
74427;BME280;62859;53.906;27.430;2024-02-15T13:24:19;1018.7;;;4.8;53.5
74427;BME280;62859;53.906;27.430;2024-02-15T13:29:55;1018.7;;;4.7;53.8
74427;BME280;62859;53.906;27.430;2024-02-15T13:34:45;1018.8;;;4.6;54.1
74427;BME280;62859;53.906;27.430;2024-02-15T13:39:53;1018.8;;;4.5;54.1
74427;BME280;62859;53.906;27.430;2024-02-15T14:09:19;1018.8;;;4.6;54
74427;BME280;62859;53.906;27.430;2024-02-15T14:14:11;1018.8;;;4.4;55.6
74427;BME280;62859;53.906;27.430;2024-02-15T14:24:45;1018.8;;;4.5;56.2
74427;BME280;62859;53.906;27.430;2024-02-15T14:29:55;1018.7;;;4.5;55.4
74427;BME280;62859;53.906;27.430;2024-02-15T14:44:55;1018.7;;;4.4;55.7
74427;BME280;62859;53.906;27.430;2024-02-15T14:49:55;1018.6;;;4.2;55.7
74427;BME280;62859;53.906;27.430;2024-02-15T14:54:13;1018.6;;;4.2;55.7
74427;BME280;62859;53.906;27.430;2024-02-15T15:04:55;1018.7;;;4.2;55.7
74427;BME280;62859;53.906;27.430;2024-02-15T15:09:39;1018.7;;;4.4;55.2
74427;BME280;62859;53.906;27.430;2024-02-15T15:14:55;1018.7;;;4.4;55.4
74427;BME280;62859;53.906;27.430;2024-02-15T15:19:25;1018.8;;;4.5;55.6
74427;BME280;62859;53.906;27.430;2024-02-15T15:24:55;1018.9;;;4.4;54.8
74427;BME280;62859;53.906;27.430;2024-02-15T15:29:19;1018.9;;;4.3;54.9
74427;BME280;62859;53.906;27.430;2024-02-15T15:34:19;1018.9;;;4.2;55.2
74427;BME280;62859;53.906;27.430;2024-02-15T15:39:19;1018.9;;;4.2;55.4
74427;BME280;62859;53.906;27.430;2024-02-15T15:44:30;1019;;;4.2;54.9
74427;BME280;62859;53.906;27.430;2024-02-15T15:49:17;1019;;;4.2;55
74427;BME280;62859;53.906;27.430;2024-02-15T15:54:55;1019.1;;;4.2;54.5
74427;BME280;62859;53.906;27.430;2024-02-15T15:59:45;1019.1;;;4.2;55
74427;BME280;62859;53.906;27.430;2024-02-15T16:04:41;1019.2;;;4.2;54.9
74427;BME280;62859;53.906;27.430;2024-02-15T16:09:55;1019.2;;;4.2;55.1
74427;BME280;62859;53.906;27.430;2024-02-15T16:14:37;1019.2;;;4.2;54.6
74427;BME280;62859;53.906;27.430;2024-02-15T16:19:29;1019.2;;;4.2;54.8
74427;BME280;62859;53.906;27.430;2024-02-15T16:24:27;1019.2;;;4.2;54.9
74427;BME280;62859;53.906;27.430;2024-02-15T16:29:19;1019.2;;;4.1;55.1
74427;BME280;62859;53.906;27.430;2024-02-15T16:34:11;1019.3;;;4.1;55.3
74427;BME280;62859;53.906;27.430;2024-02-15T16:39:29;1019.2;;;4.1;55.4
74427;BME280;62859;53.906;27.430;2024-02-15T16:44:25;1019.3;;;4;55.9
74427;BME280;62859;53.906;27.430;2024-02-15T16:49:35;1019.3;;;3.9;55.8
74427;BME280;62859;53.906;27.430;2024-02-15T16:54:25;1019.3;;;3.9;55.7
74427;BME280;62859;53.906;27.430;2024-02-15T16:59:55;1019.3;;;3.8;55.7
74427;BME280;62859;53.906;27.430;2024-02-15T17:04:55;1019.3;;;3.8;55.7
74427;BME280;62859;53.906;27.430;2024-02-15T17:09:27;1019.4;;;3.8;55.6
74427;BME280;62859;53.906;27.430;2024-02-15T17:14:11;1019.4;;;3.8;55.2
74427;BME280;62859;53.906;27.430;2024-02-15T17:19:11;1019.3;;;3.8;55.2
74427;BME280;62859;53.906;27.430;2024-02-15T17:24:11;1019.3;;;3.8;54.9
74427;BME280;62859;53.906;27.430;2024-02-15T17:29:11;1019.3;;;3.9;55.7
74427;BME280;62859;53.906;27.430;2024-02-15T17:34:55;1019.3;;;3.9;55.4
74427;BME280;62859;53.906;27.430;2024-02-15T17:39:37;1019.3;;;3.8;55.2
74427;BME280;62859;53.906;27.430;2024-02-15T17:44:47;1019.2;;;3.8;55.3
74427;BME280;62859;53.906;27.430;2024-02-15T17:49:29;1019.1;;;3.7;55.3
74427;BME280;62859;53.906;27.430;2024-02-15T17:54:55;1019.1;;;3.6;55.9
74427;BME280;62859;53.906;27.430;2024-02-15T17:59:55;1019.1;;;3.5;56
74427;BME280;62859;53.906;27.430;2024-02-15T18:04:47;1019.1;;;3.4;56.3
74427;BME280;62859;53.906;27.430;2024-02-15T18:09:19;1019.1;;;3.4;56.6
74427;BME280;62859;53.906;27.430;2024-02-15T18:14:47;1019.1;;;3.4;56.9
74427;BME280;62859;53.906;27.430;2024-02-15T18:19:11;1019.1;;;3.5;56.8
74427;BME280;62859;53.906;27.430;2024-02-15T18:24:35;1019.1;;;3.6;56.7
74427;BME280;62859;53.906;27.430;2024-02-15T18:29:25;1019.1;;;3.7;56.4
74427;BME280;62859;53.906;27.430;2024-02-15T18:34:55;1019.1;;;3.6;56.4
74427;BME280;62859;53.906;27.430;2024-02-15T18:39:55;1019.1;;;3.7;56.6
74427;BME280;62859;53.906;27.430;2024-02-15T18:44:19;1019;;;3.7;56.4
74427;BME280;62859;53.906;27.430;2024-02-15T18:49:12;1019.1;;;3.7;56.5
74427;BME280;62859;53.906;27.430;2024-02-15T18:54:29;1019;;;3.7;56.6
74427;BME280;62859;53.906;27.430;2024-02-15T18:59:11;1019;;;3.7;56.7
74427;BME280;62859;53.906;27.430;2024-02-15T19:04:11;1019.1;;;3.7;56.9
74427;BME280;62859;53.906;27.430;2024-02-15T19:09:57;1019;;;3.6;56.9
74427;BME280;62859;53.906;27.430;2024-02-15T19:14:38;1019.1;;;3.7;56.7
74427;BME280;62859;53.906;27.430;2024-02-15T19:19:13;1019.2;;;3.7;56.7
74427;BME280;62859;53.906;27.430;2024-02-15T19:24:55;1019.2;;;3.8;56.5
74427;BME280;62859;53.906;27.430;2024-02-15T19:29:55;1019.2;;;3.8;56.1
74427;BME280;62859;53.906;27.430;2024-02-15T19:34:11;1019.2;;;3.8;56.1
74427;BME280;62859;53.906;27.430;2024-02-15T19:39:48;1019.2;;;3.7;56
74427;BME280;62859;53.906;27.430;2024-02-15T19:44:19;1019.1;;;3.7;56.4
74427;BME280;62859;53.906;27.430;2024-02-15T19:49:49;1019;;;3.7;56.6
74427;BME280;62859;53.906;27.430;2024-02-15T19:54:35;1019;;;3.6;56.4
74427;BME280;62859;53.906;27.430;2024-02-15T19:59:57;1019;;;3.6;56.4
74427;BME280;62859;53.906;27.430;2024-02-15T20:04:25;1019;;;3.5;56.8
74427;BME280;62859;53.906;27.430;2024-02-15T20:09:13;1019;;;3.4;57
74427;BME280;62859;53.906;27.430;2024-02-15T20:14:53;1019;;;3.4;57.2
74427;BME280;62859;53.906;27.430;2024-02-15T20:19:17;1019;;;3.5;57.2
74427;BME280;62859;53.906;27.430;2024-02-15T20:24:31;1019.1;;;3.4;57.4
74427;BME280;62859;53.906;27.430;2024-02-15T20:29:17;1019;;;3.5;57.5
74427;BME280;62859;53.906;27.430;2024-02-15T20:34:19;1019.1;;;3.5;57.5
74427;BME280;62859;53.906;27.430;2024-02-15T20:39:11;1019.1;;;3.6;57.5
74427;BME280;62859;53.906;27.430;2024-02-15T20:44:17;1019.1;;;3.6;57.2
74427;BME280;62859;53.906;27.430;2024-02-15T20:49:29;1019.1;;;3.6;57.4
74427;BME280;62859;53.906;27.430;2024-02-15T20:54:53;1019;;;3.6;57.4
74427;BME280;62859;53.906;27.430;2024-02-15T20:59:53;1019;;;3.5;57.6
74427;BME280;62859;53.906;27.430;2024-02-15T21:04:53;1018.9;;;3.4;57.8
74427;BME280;62859;53.906;27.430;2024-02-15T21:09:53;1019;;;3.4;57.8
74427;BME280;62859;53.906;27.430;2024-02-15T21:14:45;1019;;;3.4;57.9
74427;BME280;62859;53.906;27.430;2024-02-15T21:19:45;1019;;;3.4;58.1
74427;BME280;62859;53.906;27.430;2024-02-15T21:24:53;1019;;;3.4;58.1
74427;BME280;62859;53.906;27.430;2024-02-15T21:29:33;1019;;;3.4;58.1
74427;BME280;62859;53.906;27.430;2024-02-15T21:34:19;1018.9;;;3.3;58.3
74427;BME280;62859;53.906;27.430;2024-02-15T21:39:33;1018.9;;;3.3;58.3
74427;BME280;62859;53.906;27.430;2024-02-15T21:44:43;1018.9;;;3.2;58.5
74427;BME280;62859;53.906;27.430;2024-02-15T21:49:53;1019;;;3.2;58.8
74427;BME280;62859;53.906;27.430;2024-02-15T21:54:11;1019.1;;;3.3;58.3
74427;BME280;62859;53.906;27.430;2024-02-15T21:59:37;1019;;;3.3;58.4
74427;BME280;62859;53.906;27.430;2024-02-15T22:04:29;1019.1;;;3.3;58.7
74427;BME280;62859;53.906;27.430;2024-02-15T22:09:19;1019.2;;;3.2;58.6
74427;BME280;62859;53.906;27.430;2024-02-15T22:14:11;1019.1;;;3.2;58.7
74427;BME280;62859;53.906;27.430;2024-02-15T22:19:25;1019.1;;;3.2;58.7
74427;BME280;62859;53.906;27.430;2024-02-15T22:24:11;1019.1;;;3.1;58.8
74427;BME280;62859;53.906;27.430;2024-02-15T22:29:37;1019.2;;;3.1;58.7
74427;BME280;62859;53.906;27.430;2024-02-15T22:34:37;1019.2;;;3.1;58.7
74427;BME280;62859;53.906;27.430;2024-02-15T22:39:35;1019.4;;;3.1;58.6
74427;BME280;62859;53.906;27.430;2024-02-15T22:44:53;1019.4;;;3.1;58.7
74427;BME280;62859;53.906;27.430;2024-02-15T22:49:35;1019.4;;;3.2;58.7
74427;BME280;62859;53.906;27.430;2024-02-15T22:54:33;1019.4;;;3.2;58.7
74427;BME280;62859;53.906;27.430;2024-02-15T22:59:25;1019.3;;;3.2;58.8
74427;BME280;62859;53.906;27.430;2024-02-15T23:04:33;1019.4;;;3.2;58.7
74427;BME280;62859;53.906;27.430;2024-02-15T23:09:45;1019.5;;;3.2;58.7
74427;BME280;62859;53.906;27.430;2024-02-15T23:14:53;1019.4;;;3.2;58.7
74427;BME280;62859;53.906;27.430;2024-02-15T23:19:43;1019.3;;;3.2;58.5
74427;BME280;62859;53.906;27.430;2024-02-15T23:24:53;1019.3;;;3.1;58.7
74427;BME280;62859;53.906;27.430;2024-02-15T23:29:17;1019.3;;;3.1;58.9
74427;BME280;62859;53.906;27.430;2024-02-15T23:34:25;1019.3;;;3;59.1
74427;BME280;62859;53.906;27.430;2024-02-15T23:39:17;1019.2;;;3.1;59.3
74427;BME280;62859;53.906;27.430;2024-02-15T23:44:09;1019.3;;;3.1;59.1
74427;BME280;62859;53.906;27.430;2024-02-15T23:49:15;1019.2;;;3;59.5
74427;BME280;62859;53.906;27.430;2024-02-15T23:54:15;1019.2;;;3.1;59.2
74427;BME280;62859;53.906;27.430;2024-02-15T23:59:21;1019.2;;;3.1;59.2
